Time;durP1;ratioP1;P1;durP2;ratioP2;P2;SDS_P1;SDS_P2;PMS_P1;PMS_P2;Temp;Humidity;BMP_temperature;BMP_pressure;BME280_temperature;BME280_humidity;BME280_pressure;Samples;Min_cycle;Max_cycle;Signal;HPM_P1;HPM_P2
2023/11/14 00:02:12;;;;;;;2.13;1.92;;;18.40;65.90;;;;;;5082494;28;20481;-34
2023/11/14 00:04:38;;;;;;;2.35;2.10;;;18.50;66.00;;;;;;5082662;28;20032;-34
2023/11/14 00:07:05;;;;;;;3.65;1.95;;;18.40;66.00;;;;;;5082637;28;20095;-33
2023/11/14 00:09:32;;;;;;;2.20;2.00;;;18.40;66.00;;;;;;5083061;28;20104;-34
2023/11/14 00:11:58;;;;;;;2.22;2.03;;;18.40;65.90;;;;;;5083594;28;20031;-34
2023/11/14 00:14:25;;;;;;;2.70;2.00;;;18.40;66.00;;;;;;5086375;28;20432;-35
2023/11/14 00:16:51;;;;;;;2.78;2.00;;;18.40;66.00;;;;;;5087341;28;20029;-35
2023/11/14 00:19:19;;;;;;;2.05;1.85;;;18.40;66.00;;;;;;5086608;28;20035;-34
2023/11/14 00:21:46;;;;;;;2.65;1.95;;;18.40;66.00;;;;;;5087225;28;20044;-34
2023/11/14 00:24:12;;;;;;;2.25;2.05;;;18.40;66.10;;;;;;5086512;28;20063;-34
2023/11/14 00:26:38;;;;;;;2.10;1.90;;;18.30;66.00;;;;;;5083009;28;20028;-34
2023/11/14 00:29:05;;;;;;;2.15;1.90;;;18.30;66.10;;;;;;5086754;28;20039;-34
2023/11/14 00:31:31;;;;;;;2.53;2.08;;;18.30;66.00;;;;;;5087497;28;20027;-34
2023/11/14 00:33:58;;;;;;;2.28;2.00;;;18.30;66.10;;;;;;5086777;28;20092;-34
2023/11/14 00:36:24;;;;;;;2.40;1.90;;;18.30;66.00;;;;;;5086207;28;20115;-34
2023/11/14 00:38:50;;;;;;;5.03;2.07;;;18.30;66.10;;;;;;5085830;28;20063;-34
2023/11/14 00:41:17;;;;;;;3.28;2.20;;;18.30;66.10;;;;;;5085872;28;20292;-34
2023/11/14 00:43:43;;;;;;;2.58;2.20;;;18.20;66.10;;;;;;5085361;28;20053;-34
2023/11/14 00:46:12;;;;;;;2.45;2.25;;;18.20;66.10;;;;;;5086201;28;20048;-34
2023/11/14 00:48:39;;;;;;;2.20;2.00;;;18.20;66.10;;;;;;5077427;28;20020;-34
2023/11/14 00:51:05;;;;;;;3.72;2.17;;;18.20;66.10;;;;;;5086291;28;20063;-34
2023/11/14 00:53:31;;;;;;;2.20;2.00;;;18.20;66.20;;;;;;5085892;28;20021;-34
2023/11/14 00:55:57;;;;;;;2.38;2.17;;;18.20;66.30;;;;;;5086241;28;20029;-35
2023/11/14 00:58:24;;;;;;;2.67;2.22;;;18.20;66.20;;;;;;5084739;28;20032;-34
2023/11/14 01:00:50;;;;;;;2.17;1.98;;;18.20;66.30;;;;;;5087432;28;20031;-34
2023/11/14 01:03:18;;;;;;;2.55;2.25;;;18.10;66.30;;;;;;5085810;28;20094;-34
2023/11/14 01:05:46;;;;;;;2.88;2.20;;;18.10;66.30;;;;;;5078741;28;20055;-34
2023/11/14 01:08:12;;;;;;;2.60;2.22;;;18.10;66.30;;;;;;5085494;28;20036;-33
2023/11/14 01:10:39;;;;;;;4.50;2.15;;;18.10;66.30;;;;;;5078947;28;20040;-35
2023/11/14 01:13:05;;;;;;;2.58;2.38;;;18.10;66.30;;;;;;5085700;28;20059;-35
2023/11/14 01:15:31;;;;;;;2.30;1.92;;;18.00;66.30;;;;;;5086103;28;20028;-33
2023/11/14 01:17:57;;;;;;;2.25;1.95;;;18.00;66.40;;;;;;5085824;28;20056;-35
2023/11/14 01:20:24;;;;;;;3.20;2.30;;;18.00;66.50;;;;;;5085371;28;20029;-34
2023/11/14 01:22:50;;;;;;;3.05;2.08;;;18.00;66.50;;;;;;5085924;28;20089;-35
2023/11/14 01:25:16;;;;;;;3.25;2.65;;;18.00;66.50;;;;;;5082964;28;20064;-33
2023/11/14 01:27:44;;;;;;;2.90;2.28;;;18.00;66.50;;;;;;5085958;28;20056;-34
2023/11/14 01:30:10;;;;;;;4.35;2.35;;;18.00;66.50;;;;;;5085091;28;20392;-33
2023/11/14 01:32:36;;;;;;;3.33;2.40;;;17.90;66.50;;;;;;5085349;28;20084;-34
2023/11/14 01:35:03;;;;;;;2.88;2.58;;;17.90;66.50;;;;;;5085448;28;20093;-34
2023/11/14 01:37:29;;;;;;;2.40;2.20;;;17.90;66.50;;;;;;5084617;28;20017;-34
2023/11/14 01:39:55;;;;;;;3.00;2.70;;;17.90;66.50;;;;;;5085136;28;20036;-34
2023/11/14 01:42:21;;;;;;;3.08;2.65;;;17.90;66.60;;;;;;5085170;28;20062;-34
2023/11/14 01:44:47;;;;;;;2.67;2.20;;;17.90;66.60;;;;;;5084709;28;20089;-34
2023/11/14 01:47:14;;;;;;;3.83;2.38;;;17.80;66.60;;;;;;5085081;28;20024;-33
2023/11/14 01:49:40;;;;;;;3.13;2.30;;;17.80;66.60;;;;;;5081076;28;20025;-34
2023/11/14 01:52:06;;;;;;;4.07;2.70;;;17.80;66.60;;;;;;5085531;28;20029;-34
2023/11/14 01:54:33;;;;;;;3.63;2.35;;;17.80;66.70;;;;;;5085137;28;20042;-33
2023/11/14 01:57:00;;;;;;;;;;;17.80;66.80;;;;;;5078432;28;20035;-33
2023/11/14 01:59:28;;;;;;;2.60;2.40;;;17.80;66.70;;;;;;5083941;28;19916;-34
2023/11/14 02:01:55;;;;;;;3.00;2.70;;;17.80;66.80;;;;;;5071243;28;20066;-34
2023/11/14 02:04:22;;;;;;;2.47;2.25;;;17.70;66.70;;;;;;5083326;28;20503;-33
2023/11/14 02:06:48;;;;;;;;;;;17.70;66.80;;;;;;5072120;28;20032;-34
2023/11/14 02:09:15;;;;;;;2.92;2.25;;;17.70;66.80;;;;;;5082087;28;19909;-34
2023/11/14 02:11:45;;;;;;;2.60;2.25;;;17.70;66.90;;;;;;5117411;28;20017;-34
2023/11/14 02:14:13;;;;;;;3.05;2.75;;;17.70;66.80;;;;;;5084278;28;20029;-33
2023/11/14 02:16:46;;;;;;;2.60;2.40;;;17.70;66.90;;;;;;5077314;28;20028;-34
2023/11/14 02:19:13;;;;;;;3.47;2.58;;;17.70;66.90;;;;;;5084022;28;20021;-34
2023/11/14 02:21:43;;;;;;;3.30;2.33;;;17.70;66.90;;;;;;5083587;28;20481;-34
2023/11/14 02:24:13;;;;;;;3.50;2.78;;;17.60;66.90;;;;;;5084485;28;20064;-34
2023/11/14 02:26:40;;;;;;;2.83;2.25;;;17.60;66.90;;;;;;5074192;28;20039;-34
2023/11/14 02:29:06;;;;;;;3.45;2.55;;;17.60;67.00;;;;;;5086695;28;20075;-34
2023/11/14 02:31:32;;;;;;;2.83;2.53;;;17.60;67.00;;;;;;5084353;28;20028;-34
2023/11/14 02:33:58;;;;;;;3.05;2.70;;;17.60;67.80;;;;;;5084610;28;20052;-34
2023/11/14 02:36:24;;;;;;;2.70;2.50;;;17.60;67.10;;;;;;5083335;28;20039;-34
2023/11/14 02:38:50;;;;;;;3.40;2.60;;;17.60;67.10;;;;;;5070344;28;20120;-34
2023/11/14 02:41:16;;;;;;;3.50;2.67;;;17.50;67.00;;;;;;5080577;28;20408;-34
2023/11/14 02:43:43;;;;;;;3.08;2.67;;;17.50;67.10;;;;;;5083972;28;20565;-34
2023/11/14 02:46:09;;;;;;;2.97;2.40;;;17.50;67.10;;;;;;5084667;28;20039;-34
2023/11/14 02:48:35;;;;;;;4.28;2.80;;;17.50;67.10;;;;;;5084254;28;20075;-34
2023/11/14 02:51:01;;;;;;;3.00;2.50;;;17.50;67.20;;;;;;5083592;28;20029;-34
2023/11/14 02:53:28;;;;;;;3.40;2.50;;;17.50;67.20;;;;;;5085584;28;20029;-34
2023/11/14 02:55:54;;;;;;;3.45;2.80;;;17.50;67.20;;;;;;5084585;28;20138;-34
2023/11/14 02:58:20;;;;;;;3.22;2.40;;;17.50;67.20;;;;;;5083476;28;20066;-34
2023/11/14 03:00:51;;;;;;;3.58;2.60;;;17.50;67.20;;;;;;5083894;28;20046;-33
2023/11/14 03:03:18;;;;;;;2.78;2.55;;;17.40;67.10;;;;;;5083672;28;20036;-33
2023/11/14 03:05:44;;;;;;;3.35;2.10;;;17.40;67.20;;;;;;5081579;28;20111;-34
2023/11/14 03:08:11;;;;;;;2.92;2.53;;;17.40;67.20;;;;;;5076933;28;20043;-34
2023/11/14 03:10:38;;;;;;;3.60;2.72;;;17.40;68.00;;;;;;5083714;28;20032;-34
2023/11/14 03:13:05;;;;;;;2.67;2.40;;;17.40;67.30;;;;;;5083213;28;20028;-34
2023/11/14 03:15:32;;;;;;;4.15;2.90;;;17.40;67.30;;;;;;5083961;28;20439;-34
2023/11/14 03:17:58;;;;;;;2.70;2.50;;;17.40;67.30;;;;;;5083136;28;20108;-34
2023/11/14 03:20:25;;;;;;;4.07;2.47;;;17.40;67.30;;;;;;5088587;28;20292;-34
2023/11/14 03:22:52;;;;;;;3.35;2.60;;;17.30;67.30;;;;;;5083315;28;20025;-34
2023/11/14 03:25:18;;;;;;;3.33;2.97;;;17.30;67.30;;;;;;5083242;28;20048;-34
2023/11/14 03:27:44;;;;;;;3.30;2.58;;;17.30;68.10;;;;;;5084065;28;20035;-34
2023/11/14 03:30:11;;;;;;;3.83;2.70;;;17.30;67.40;;;;;;5082951;28;20036;-34
2023/11/14 03:32:37;;;;;;;2.95;2.45;;;17.30;67.40;;;;;;5083375;28;20034;-34
2023/11/14 03:35:04;;;;;;;5.15;2.88;;;17.30;67.50;;;;;;5083766;28;20066;-34
2023/11/14 03:37:31;;;;;;;3.03;2.50;;;17.30;67.50;;;;;;5079810;28;20044;-34
2023/11/14 03:39:57;;;;;;;3.28;2.92;;;17.30;67.50;;;;;;5077967;28;20059;-34
2023/11/14 03:42:23;;;;;;;3.55;2.70;;;17.30;67.50;;;;;;5081755;28;20063;-34
2023/11/14 03:44:49;;;;;;;2.72;2.53;;;17.30;67.50;;;;;;5082623;28;20029;-34
2023/11/14 03:47:15;;;;;;;3.35;3.03;;;17.20;67.50;;;;;;5082099;28;20032;-33
2023/11/14 03:49:41;;;;;;;3.40;3.05;;;17.20;67.50;;;;;;5082675;28;20036;-34
2023/11/14 03:52:08;;;;;;;3.08;2.75;;;17.20;67.50;;;;;;5083456;28;20025;-33
2023/11/14 03:54:36;;;;;;;2.80;2.60;;;17.20;67.50;;;;;;5083240;28;20084;-33
2023/11/14 03:57:03;;;;;;;3.78;2.47;;;17.20;67.50;;;;;;5082599;28;20028;-34
2023/11/14 03:59:29;;;;;;;3.90;2.50;;;17.20;68.00;;;;;;5081156;28;20108;-33
2023/11/14 04:01:55;;;;;;;2.70;2.45;;;17.30;68.20;;;;;;5081953;28;20025;-33
2023/11/14 04:04:21;;;;;;;3.47;2.60;;;17.30;68.00;;;;;;5080812;28;20066;-33
2023/11/14 04:06:47;;;;;;;2.80;2.50;;;17.30;68.00;;;;;;5078930;28;20029;-33
2023/11/14 04:09:13;;;;;;;3.08;2.40;;;17.30;68.00;;;;;;5078088;28;20047;-33
2023/11/14 04:11:46;;;;;;;3.05;2.53;;;17.30;68.00;;;;;;5074277;28;20537;-33
2023/11/14 04:14:13;;;;;;;3.83;2.88;;;17.20;68.00;;;;;;5082474;28;20056;-34
2023/11/14 04:16:39;;;;;;;3.97;2.42;;;17.20;68.00;;;;;;5082657;28;20075;-34
2023/11/14 04:19:05;;;;;;;2.80;2.60;;;17.20;68.00;;;;;;5082423;28;20088;-34
2023/11/14 04:21:31;;;;;;;3.03;2.60;;;17.20;68.00;;;;;;5082408;28;20162;-34
2023/11/14 04:23:57;;;;;;;3.35;2.63;;;17.10;67.90;;;;;;5068436;28;20132;-34
2023/11/14 04:26:24;;;;;;;2.60;2.40;;;17.10;67.90;;;;;;5080864;28;20036;-34
2023/11/14 04:28:50;;;;;;;2.90;2.22;;;17.20;68.30;;;;;;5082322;28;20033;-34
2023/11/14 04:31:16;;;;;;;2.45;2.25;;;17.30;68.40;;;;;;5084550;28;20480;-34
2023/11/14 04:33:42;;;;;;;3.15;2.35;;;17.30;68.20;;;;;;5082888;28;20036;-34
2023/11/14 04:36:13;;;;;;;2.55;2.33;;;17.30;68.20;;;;;;5081896;28;20048;-34
2023/11/14 04:38:40;;;;;;;3.55;2.60;;;17.30;68.20;;;;;;5081165;28;20016;-34
2023/11/14 04:41:06;;;;;;;2.47;2.28;;;17.20;68.20;;;;;;5074133;28;20097;-34
2023/11/14 04:43:32;;;;;;;3.78;2.15;;;17.20;68.10;;;;;;5082413;28;20041;-34
2023/11/14 04:45:59;;;;;;;2.60;2.40;;;17.20;68.10;;;;;;5088584;28;20040;-34
2023/11/14 04:48:25;;;;;;;3.23;2.70;;;17.20;68.10;;;;;;5082488;28;20029;-34
2023/11/14 04:50:51;;;;;;;2.40;2.20;;;17.20;68.10;;;;;;5082115;28;20032;-34
2023/11/14 04:53:17;;;;;;;2.30;2.10;;;17.20;68.20;;;;;;5081931;28;20052;-34
2023/11/14 04:55:43;;;;;;;2.45;2.15;;;17.30;68.50;;;;;;5082735;28;20020;-34
2023/11/14 04:58:09;;;;;;;2.35;2.15;;;17.30;68.50;;;;;;5082023;28;20024;-34
2023/11/14 05:00:35;;;;;;;2.35;2.13;;;17.30;68.40;;;;;;5085214;28;20105;-34
2023/11/14 05:03:05;;;;;;;2.45;2.10;;;17.30;68.30;;;;;;5077380;28;20478;-34
2023/11/14 05:05:32;;;;;;;2.40;2.13;;;17.30;68.30;;;;;;5085098;28;20036;-35
2023/11/14 05:07:58;;;;;;;2.80;2.20;;;17.30;68.30;;;;;;5079881;28;20115;-35
2023/11/14 05:10:24;;;;;;;2.63;2.40;;;17.20;68.20;;;;;;5085501;28;20058;-35
2023/11/14 05:12:50;;;;;;;2.90;2.30;;;17.20;68.20;;;;;;5084595;28;20021;-34
2023/11/14 05:15:17;;;;;;;2.95;2.35;;;17.20;68.10;;;;;;5085467;28;20040;-34
2023/11/14 05:17:43;;;;;;;4.03;2.28;;;17.20;68.20;;;;;;5085691;28;20040;-34
2023/11/14 05:20:11;;;;;;;2.97;2.67;;;17.20;68.20;;;;;;5085706;28;20045;-34
2023/11/14 05:22:38;;;;;;;2.20;2.00;;;17.10;68.10;;;;;;5088726;28;20028;-34
2023/11/14 05:25:06;;;;;;;3.03;2.20;;;17.20;68.50;;;;;;5089003;28;20033;-34
2023/11/14 05:27:32;;;;;;;2.00;1.80;;;17.30;68.50;;;;;;5085058;28;20029;-34
2023/11/14 05:29:58;;;;;;;2.58;2.38;;;17.30;68.40;;;;;;5085530;28;20084;-34
2023/11/14 05:32:25;;;;;;;2.50;2.03;;;17.30;68.40;;;;;;5084943;28;20020;-34
2023/11/14 05:34:51;;;;;;;2.45;2.20;;;17.30;68.40;;;;;;5085855;28;20032;-33
2023/11/14 05:37:17;;;;;;;2.40;2.20;;;17.30;68.40;;;;;;5078682;28;20025;-34
2023/11/14 05:39:44;;;;;;;2.55;2.25;;;17.20;68.30;;;;;;5085160;28;20033;-33
2023/11/14 05:42:10;;;;;;;2.20;2.00;;;17.20;68.20;;;;;;5084611;28;20044;-33
2023/11/14 05:44:36;;;;;;;2.30;2.10;;;17.20;68.20;;;;;;5084186;28;20036;-33
2023/11/14 05:47:03;;;;;;;2.33;2.10;;;17.30;68.60;;;;;;5085901;28;20046;-33
2023/11/14 05:49:30;;;;;;;2.30;2.10;;;17.30;68.70;;;;;;5084769;28;20036;-34
2023/11/14 05:51:56;;;;;;;2.53;2.28;;;17.30;68.60;;;;;;5084756;28;20025;-33
2023/11/14 05:54:22;;;;;;;2.90;2.42;;;17.30;68.50;;;;;;5084585;28;20055;-34
2023/11/14 05:56:48;;;;;;;2.20;2.00;;;17.30;68.50;;;;;;5084543;28;20047;-34
2023/11/14 05:59:14;;;;;;;2.55;2.13;;;17.30;68.40;;;;;;5084188;28;20029;-34
2023/11/14 06:01:42;;;;;;;2.47;2.22;;;17.30;68.40;;;;;;5078024;28;20425;-34
2023/11/14 06:04:08;;;;;;;2.50;2.28;;;17.20;68.30;;;;;;5085078;28;20024;-34
2023/11/14 06:06:34;;;;;;;3.55;1.92;;;17.20;68.30;;;;;;5085326;28;20040;-34
2023/11/14 06:09:01;;;;;;;3.30;2.05;;;17.20;68.30;;;;;;5084604;28;20028;-34
2023/11/14 06:11:28;;;;;;;3.58;2.35;;;17.20;69.00;;;;;;5084102;28;20134;-34
2023/11/14 06:13:54;;;;;;;3.20;2.60;;;17.20;68.30;;;;;;5084848;28;20028;-34
2023/11/14 06:16:20;;;;;;;4.80;1.95;;;17.20;68.40;;;;;;5084930;28;20036;-34
2023/11/14 06:18:46;;;;;;;2.97;1.90;;;17.30;68.70;;;;;;5084325;28;20028;-34
2023/11/14 06:21:13;;;;;;;2.70;2.25;;;17.30;68.70;;;;;;5084226;28;20024;-34
2023/11/14 06:23:39;;;;;;;2.85;2.17;;;17.30;68.60;;;;;;5077668;28;20031;-34
2023/11/14 06:26:06;;;;;;;3.50;2.28;;;17.30;68.50;;;;;;5084863;28;20045;-34
2023/11/14 06:28:32;;;;;;;3.63;2.00;;;17.30;68.60;;;;;;5084057;28;20020;-34
2023/11/14 06:30:58;;;;;;;2.53;2.22;;;17.30;68.50;;;;;;5085017;28;20021;-34
2023/11/14 06:33:24;;;;;;;2.60;2.15;;;17.20;68.40;;;;;;5083578;28;20060;-34
2023/11/14 06:35:52;;;;;;;2.97;2.03;;;17.20;68.50;;;;;;5084248;28;20032;-34
2023/11/14 06:38:18;;;;;;;3.17;2.28;;;17.20;68.40;;;;;;5078103;28;20028;-33
2023/11/14 06:40:45;;;;;;;2.93;2.10;;;17.20;68.40;;;;;;5084619;28;20020;-34
2023/11/14 06:43:11;;;;;;;2.83;2.30;;;17.20;68.70;;;;;;5073216;28;20121;-34
2023/11/14 06:45:37;;;;;;;2.60;2.07;;;17.30;68.80;;;;;;5085663;28;20040;-34
2023/11/14 06:48:04;;;;;;;4.70;2.53;;;17.40;68.80;;;;;;5086977;28;20099;-35
2023/11/14 06:50:30;;;;;;;2.50;2.30;;;17.30;68.70;;;;;;5084070;28;20085;-34
2023/11/14 06:52:56;;;;;;;3.03;2.22;;;17.30;68.70;;;;;;5083796;28;20098;-34
2023/11/14 06:55:22;;;;;;;3.22;2.20;;;17.30;68.70;;;;;;5083700;28;20028;-34
2023/11/14 06:57:50;;;;;;;3.88;2.67;;;17.20;68.60;;;;;;5084296;28;20021;-34
2023/11/14 07:00:17;;;;;;;2.53;2.22;;;17.20;68.60;;;;;;5083403;28;20043;-34
2023/11/14 07:02:43;;;;;;;2.67;2.47;;;17.20;68.50;;;;;;5083772;28;20020;-34
2023/11/14 07:05:09;;;;;;;3.45;2.33;;;17.20;69.20;;;;;;5083020;28;20041;-34
2023/11/14 07:07:38;;;;;;;3.75;2.08;;;17.30;68.90;;;;;;5109328;28;20016;-34
2023/11/14 07:10:06;;;;;;;2.33;2.13;;;17.30;68.80;;;;;;5083740;28;20036;-34
2023/11/14 07:12:32;;;;;;;2.78;2.30;;;17.30;68.70;;;;;;5083694;28;20140;-34
2023/11/14 07:14:59;;;;;;;4.93;2.40;;;17.30;68.70;;;;;;5083629;28;20024;-34
2023/11/14 07:17:26;;;;;;;3.28;2.40;;;17.30;68.60;;;;;;5083816;28;20055;-34
2023/11/14 07:19:54;;;;;;;2.75;2.33;;;17.30;68.60;;;;;;5083691;28;20504;-34
2023/11/14 07:22:20;;;;;;;3.22;2.50;;;17.20;68.60;;;;;;5082140;28;20063;-34
2023/11/14 07:24:46;;;;;;;3.53;2.17;;;17.20;68.60;;;;;;5088302;28;20075;-34
2023/11/14 07:27:14;;;;;;;2.50;2.30;;;17.20;68.60;;;;;;5083497;28;20035;-34
2023/11/14 07:29:40;;;;;;;3.35;2.40;;;17.30;68.90;;;;;;5076071;28;20052;-33
2023/11/14 07:32:08;;;;;;;2.55;2.35;;;17.40;69.00;;;;;;5083112;28;20477;-33
2023/11/14 07:34:34;;;;;;;3.83;2.15;;;17.30;68.80;;;;;;5083279;28;20048;-34
2023/11/14 07:37:00;;;;;;;3.40;2.22;;;17.30;68.80;;;;;;5077534;28;20028;-33
2023/11/14 07:39:28;;;;;;;5.00;2.53;;;17.30;68.70;;;;;;5082266;28;20063;-33
2023/11/14 07:41:54;;;;;;;3.42;2.70;;;17.30;68.70;;;;;;5083454;28;20058;-34
2023/11/14 07:44:20;;;;;;;3.33;2.63;;;17.30;68.70;;;;;;5080704;28;20040;-33
2023/11/14 07:46:46;;;;;;;3.08;2.33;;;17.20;68.70;;;;;;5083290;28;20050;-33
2023/11/14 07:49:12;;;;;;;2.60;2.40;;;17.20;68.60;;;;;;5082584;28;20033;-33
2023/11/14 07:51:38;;;;;;;3.63;2.88;;;17.20;69.30;;;;;;5083466;28;20031;-35
2023/11/14 07:54:05;;;;;;;2.55;2.10;;;17.20;68.80;;;;;;5083264;28;20042;-35
2023/11/14 07:56:32;;;;;;;2.80;2.47;;;17.30;69.00;;;;;;5082592;28;20565;-33
2023/11/14 07:58:58;;;;;;;;;;;17.40;68.90;;;;;;5083159;28;20787;-34
2023/11/14 08:01:24;;;;;;;3.45;2.38;;;17.30;68.80;;;;;;5082608;28;20436;-33
2023/11/14 08:03:50;;;;;;;3.53;2.50;;;17.30;68.80;;;;;;5082831;28;20085;-34
2023/11/14 08:06:16;;;;;;;2.97;2.58;;;17.30;68.70;;;;;;5082580;28;20027;-33
2023/11/14 08:08:44;;;;;;;2.60;2.40;;;17.30;68.80;;;;;;5070397;28;20021;-34
2023/11/14 08:11:11;;;;;;;3.17;2.40;;;17.20;68.70;;;;;;5079779;28;20032;-34
2023/11/14 08:13:37;;;;;;;3.55;2.55;;;17.20;68.70;;;;;;5082511;28;20025;-34
2023/11/14 08:16:04;;;;;;;3.28;2.55;;;17.20;68.70;;;;;;5083411;28;20024;-34
2023/11/14 08:18:30;;;;;;;2.93;2.30;;;17.20;68.70;;;;;;5082348;28;20036;-33
2023/11/14 08:20:56;;;;;;;2.55;2.17;;;17.30;69.00;;;;;;5083201;28;20024;-34
2023/11/14 08:23:22;;;;;;;3.13;2.30;;;17.40;69.10;;;;;;5080967;28;20040;-34
2023/11/14 08:25:49;;;;;;;2.40;2.13;;;17.40;69.60;;;;;;5082907;28;20342;-34
2023/11/14 08:28:15;;;;;;;2.85;2.35;;;17.30;68.80;;;;;;5082108;28;20055;-34
2023/11/14 08:30:41;;;;;;;2.38;2.17;;;17.30;68.80;;;;;;5084987;28;20078;-34
2023/11/14 08:33:10;;;;;;;3.42;2.17;;;17.30;68.80;;;;;;5083452;28;20043;-33
2023/11/14 08:35:36;;;;;;;4.05;2.70;;;17.20;68.80;;;;;;5086379;28;20032;-34
2023/11/14 08:38:02;;;;;;;3.17;2.22;;;17.20;68.70;;;;;;5080138;28;20045;-33
2023/11/14 08:40:29;;;;;;;3.42;2.70;;;17.20;68.70;;;;;;5086163;28;20013;-33
2023/11/14 08:42:55;;;;;;;3.50;2.40;;;17.20;68.80;;;;;;5087427;28;20049;-33
2023/11/14 08:45:23;;;;;;;3.05;2.40;;;17.30;69.00;;;;;;5086943;28;20060;-34
2023/11/14 08:47:50;;;;;;;2.40;2.20;;;17.40;69.00;;;;;;5092862;28;20028;-33
2023/11/14 08:50:18;;;;;;;5.55;2.45;;;17.40;68.90;;;;;;5086470;28;20059;-33
2023/11/14 08:52:45;;;;;;;3.45;2.47;;;17.30;68.80;;;;;;5086395;28;20622;-34
2023/11/14 08:55:11;;;;;;;3.75;2.85;;;17.30;68.80;;;;;;5085669;28;20040;-33
2023/11/14 08:57:37;;;;;;;3.97;2.40;;;17.30;68.80;;;;;;5086367;28;20051;-33
2023/11/14 09:00:10;;;;;;;3.33;2.40;;;17.20;68.80;;;;;;5085887;28;20388;-33
2023/11/14 09:02:37;;;;;;;4.00;2.42;;;17.20;68.80;;;;;;5086226;28;20028;-34
2023/11/14 09:05:03;;;;;;;4.45;2.75;;;17.20;68.80;;;;;;5085633;28;20036;-33
2023/11/14 09:07:29;;;;;;;3.17;2.08;;;17.20;68.80;;;;;;5079213;28;20474;-34
2023/11/14 09:09:56;;;;;;;2.90;2.10;;;17.30;69.10;;;;;;5086018;28;20041;-34
2023/11/14 09:12:22;;;;;;;3.33;2.33;;;17.40;69.10;;;;;;5085612;28;20033;-33
2023/11/14 09:14:48;;;;;;;4.28;2.67;;;17.40;68.90;;;;;;5085833;28;20048;-34
2023/11/14 09:17:14;;;;;;;3.53;2.58;;;17.30;68.80;;;;;;5088281;28;20021;-34
2023/11/14 09:19:40;;;;;;;3.47;2.53;;;17.30;68.80;;;;;;5078652;28;20028;-34
2023/11/14 09:22:06;;;;;;;2.67;2.33;;;17.30;68.80;;;;;;5086009;28;20044;-33
2023/11/14 09:24:33;;;;;;;2.67;2.10;;;17.30;68.80;;;;;;5085152;28;20698;-33
2023/11/14 09:26:59;;;;;;;3.20;2.38;;;17.20;68.80;;;;;;5085583;28;20025;-34
2023/11/14 09:29:25;;;;;;;2.85;2.50;;;17.20;68.80;;;;;;5085307;28;20029;-34
2023/11/14 09:31:51;;;;;;;3.97;2.53;;;17.20;68.80;;;;;;5085774;28;20021;-34
2023/11/14 09:34:17;;;;;;;3.85;2.55;;;17.20;68.90;;;;;;5085335;28;20288;-34
2023/11/14 09:36:43;;;;;;;2.88;2.53;;;17.40;69.10;;;;;;5085601;28;20021;-34
2023/11/14 09:39:10;;;;;;;3.25;2.45;;;17.40;68.90;;;;;;5085297;28;20067;-34
2023/11/14 09:41:36;;;;;;;4.47;2.50;;;17.30;68.80;;;;;;5085708;28;20052;-34
2023/11/14 09:44:02;;;;;;;2.87;2.43;;;17.30;68.80;;;;;;5082077;28;20049;-33
2023/11/14 09:46:32;;;;;;;3.42;2.40;;;17.30;68.80;;;;;;5091804;28;20028;-34
2023/11/14 09:48:58;;;;;;;4.18;2.58;;;17.30;68.80;;;;;;5085432;28;20025;-34
2023/11/14 09:51:25;;;;;;;3.75;2.78;;;17.20;68.80;;;;;;5084456;28;20056;-34
2023/11/14 09:53:51;;;;;;;4.00;2.45;;;17.20;68.80;;;;;;5084140;28;20032;-34
2023/11/14 09:56:18;;;;;;;3.22;2.70;;;17.20;68.80;;;;;;5071849;28;20121;-33
2023/11/14 09:58:44;;;;;;;3.22;2.08;;;17.20;68.90;;;;;;5085194;28;20028;-33
2023/11/14 10:01:11;;;;;;;2.95;2.40;;;17.40;69.00;;;;;;5084740;28;20066;-33
2023/11/14 10:03:37;;;;;;;3.70;2.80;;;17.40;68.90;;;;;;5077075;28;20024;-34
2023/11/14 10:06:04;;;;;;;3.22;2.35;;;17.30;68.80;;;;;;5076949;28;20029;-33
2023/11/14 10:08:32;;;;;;;2.83;2.57;;;17.30;68.80;;;;;;5078015;28;20057;-33
2023/11/14 10:11:05;;;;;;;2.83;2.45;;;17.30;68.80;;;;;;5085140;28;20785;-34
2023/11/14 10:13:31;;;;;;;5.18;2.85;;;17.30;68.80;;;;;;5084117;28;20056;-34
2023/11/14 10:16:19;;;;;;;4.70;2.90;;;17.20;68.80;;;;;;5083813;28;20115;-33
2023/11/14 10:18:46;;;;;;;3.70;2.97;;;17.20;68.80;;;;;;5078462;28;20054;-33
2023/11/14 10:21:32;;;;;;;3.78;2.75;;;17.20;68.80;;;;;;5084227;28;20036;-34
2023/11/14 10:23:58;;;;;;;3.05;2.70;;;17.30;69.00;;;;;;5082423;28;20021;-34
2023/11/14 10:26:25;;;;;;;2.60;1.97;;;17.40;68.90;;;;;;5084469;28;20037;-34
2023/11/14 10:28:52;;;;;;;3.00;2.70;;;17.30;68.80;;;;;;5084584;28;20104;-34
2023/11/14 10:31:41;;;;;;;4.72;2.80;;;17.30;68.80;;;;;;5084031;28;20066;-34
2023/11/14 10:34:26;;;;;;;3.50;2.63;;;17.30;68.80;;;;;;5084533;28;20092;-33
2023/11/14 10:36:54;;;;;;;3.22;2.70;;;17.30;68.80;;;;;;5078773;28;20036;-34
2023/11/14 10:39:20;;;;;;;3.65;2.85;;;17.20;68.70;;;;;;5086099;28;20032;-34
2023/11/14 10:41:48;;;;;;;3.28;2.88;;;17.20;68.70;;;;;;5084217;28;20025;-34
2023/11/14 10:44:15;;;;;;;3.30;2.40;;;17.30;69.00;;;;;;5083105;28;20107;-34
2023/11/14 10:47:09;;;;;;;3.20;2.70;;;17.40;69.00;;;;;;5083257;28;20028;-34
2023/11/14 10:49:45;;;;;;;3.90;2.70;;;17.40;68.80;;;;;;5082196;28;20029;-34
2023/11/14 10:52:11;;;;;;;2.50;2.13;;;17.40;68.80;;;;;;5084009;28;20032;-34
2023/11/14 10:54:37;;;;;;;2.95;2.60;;;17.30;68.80;;;;;;5075268;28;20035;-34
2023/11/14 10:57:04;;;;;;;2.55;2.35;;;17.30;68.80;;;;;;5091883;28;20033;-33
2023/11/14 10:59:30;;;;;;;2.67;1.85;;;17.30;68.80;;;;;;5083220;28;20036;-34
2023/11/14 11:01:56;;;;;;;4.45;2.67;;;17.20;68.70;;;;;;5083330;28;20031;-35
2023/11/14 11:04:22;;;;;;;3.78;2.47;;;17.20;68.80;;;;;;5081503;28;20044;-34
2023/11/14 11:06:48;;;;;;;3.70;2.92;;;17.20;68.90;;;;;;5073830;28;20381;-34
2023/11/14 11:09:18;;;;;;;2.70;2.38;;;17.30;69.10;;;;;;5081034;28;20091;-34
2023/11/14 11:11:45;;;;;;;4.40;2.85;;;17.40;69.00;;;;;;5076418;28;20024;-34
2023/11/14 11:14:13;;;;;;;4.68;2.75;;;17.40;68.90;;;;;;5080474;28;20031;-33
2023/11/14 11:16:46;;;;;;;3.47;2.55;;;17.30;68.80;;;;;;5083497;28;20029;-33
2023/11/14 11:19:25;;;;;;;3.50;2.72;;;17.30;68.80;;;;;;5083075;28;20043;-33
2023/11/14 11:22:01;;;;;;;3.60;2.80;;;17.30;68.90;;;;;;5086482;28;20028;-34
2023/11/14 11:24:28;;;;;;;3.55;2.78;;;17.30;68.90;;;;;;5082705;28;20041;-34
2023/11/14 11:27:17;;;;;;;4.22;2.60;;;17.20;68.80;;;;;;5083479;28;20032;-33
2023/11/14 11:29:56;;;;;;;2.67;2.47;;;17.20;68.80;;;;;;5083463;28;20107;-34
2023/11/14 11:32:45;;;;;;;3.15;2.50;;;17.20;68.90;;;;;;5074060;28;20027;-33
2023/11/14 11:37:47;;;;;;;3.38;2.47;;;17.40;69.00;;;;;;5070260;28;20029;-33
2023/11/14 11:40:13;;;;;;;3.78;2.63;;;17.40;68.90;;;;;;5082804;28;20028;-34
2023/11/14 11:42:40;;;;;;;3.78;2.70;;;17.30;68.90;;;;;;5083027;28;20078;-33
2023/11/14 11:45:27;;;;;;;3.77;2.60;;;17.30;68.90;;;;;;5083254;28;20104;-34
2023/11/14 11:47:53;;;;;;;3.05;2.60;;;17.30;68.90;;;;;;5077672;28;20024;-34
2023/11/14 11:50:33;;;;;;;2.80;2.50;;;17.20;68.80;;;;;;5081012;28;20024;-33
2023/11/14 11:53:04;;;;;;;4.32;2.60;;;17.20;69.60;;;;;;5070479;28;20028;-33
2023/11/14 11:55:31;;;;;;;2.95;2.30;;;17.20;68.90;;;;;;5081606;28;20062;-33
2023/11/14 11:58:08;;;;;;;3.58;2.70;;;17.40;69.00;;;;;;5083316;28;20062;-33
2023/11/14 12:00:35;;;;;;;3.83;2.60;;;17.40;68.80;;;;;;5082739;28;20032;-34
2023/11/14 12:03:04;;;;;;;3.42;2.67;;;17.40;68.80;;;;;;5082956;28;20032;-33
2023/11/14 12:05:32;;;;;;;4.00;2.67;;;17.30;68.80;;;;;;5082383;28;20045;-34
2023/11/14 12:08:04;;;;;;;3.70;3.00;;;17.30;68.80;;;;;;5082769;28;20024;-34
2023/11/14 12:10:30;;;;;;;4.22;2.70;;;17.30;68.80;;;;;;5082764;28;20108;-33
2023/11/14 12:12:56;;;;;;;4.93;2.50;;;17.20;68.80;;;;;;5082667;28;20052;-33
2023/11/14 12:15:28;;;;;;;3.05;2.75;;;17.20;68.80;;;;;;5082619;28;20037;-33
2023/11/14 12:17:54;;;;;;;5.20;2.90;;;17.40;69.00;;;;;;5076203;28;20040;-33
2023/11/14 12:20:21;;;;;;;3.43;2.87;;;17.40;68.90;;;;;;5082690;28;20028;-33
2023/11/14 12:22:49;;;;;;;2.80;2.50;;;17.40;68.80;;;;;;5082876;28;20281;-33
2023/11/14 12:25:20;;;;;;;2.88;2.42;;;17.40;68.80;;;;;;5069347;28;20513;-33
2023/11/14 12:28:04;;;;;;;2.95;2.65;;;17.30;68.80;;;;;;5087267;28;20028;-33
2023/11/14 12:30:30;;;;;;;2.97;2.60;;;17.30;68.80;;;;;;5082547;28;20097;-34
2023/11/14 12:33:04;;;;;;;4.45;2.60;;;17.30;68.80;;;;;;5082720;28;20050;-33
2023/11/14 12:35:57;;;;;;;4.75;3.17;;;17.20;68.80;;;;;;5084689;28;20035;-34
2023/11/14 12:38:36;;;;;;;3.45;2.63;;;17.20;68.80;;;;;;5075457;28;20035;-33
2023/11/14 12:41:27;;;;;;;3.35;2.72;;;17.30;68.90;;;;;;5083018;28;20028;-33
2023/11/14 12:44:01;;;;;;;3.40;2.50;;;17.40;68.90;;;;;;5082129;28;20040;-33
2023/11/14 12:46:30;;;;;;;4.53;3.00;;;17.40;68.80;;;;;;5082141;28;20221;-34
2023/11/14 12:49:14;;;;;;;3.38;2.60;;;17.30;68.70;;;;;;5082698;28;20028;-34
2023/11/14 12:51:51;;;;;;;4.85;3.00;;;17.30;68.80;;;;;;5081743;28;20044;-33
2023/11/14 12:54:23;;;;;;;3.92;3.28;;;17.30;68.80;;;;;;5081919;28;20052;-33